createdAt,value
2018-07-13T00:00:37.809Z,10.80
2018-07-13T00:01:37.762Z,10.70
2018-07-13T00:02:37.730Z,11.70
2018-07-13T00:03:37.695Z,11.10
2018-07-13T00:04:37.652Z,11.60
2018-07-13T00:05:37.611Z,11.60
2018-07-13T00:06:37.612Z,13.00
2018-07-13T00:07:37.575Z,11.90
2018-07-13T00:08:37.498Z,11.90
2018-07-13T00:09:37.473Z,11.30
2018-07-13T00:10:37.468Z,11.90
2018-07-13T00:11:37.390Z,11.50
2018-07-13T00:12:37.371Z,11.50
2018-07-13T00:13:37.339Z,12.30
2018-07-13T00:14:37.321Z,11.80
2018-07-13T00:15:37.282Z,12.30
2018-07-13T00:16:37.218Z,11.60
2018-07-13T00:17:37.178Z,10.70
2018-07-13T00:18:37.143Z,10.90
2018-07-13T00:19:37.117Z,11.60
2018-07-13T00:20:37.070Z,11.70
2018-07-13T00:21:37.046Z,12.20
2018-07-13T00:22:37.001Z,12.20
2018-07-13T00:23:36.967Z,12.50
2018-07-13T00:24:36.944Z,11.50
2018-07-13T00:25:36.907Z,12.50
2018-07-13T00:26:36.856Z,12.90
2018-07-13T00:27:36.820Z,12.80
2018-07-13T00:28:36.809Z,13.20
2018-07-13T00:29:36.767Z,13.20
2018-07-13T00:30:36.715Z,12.50
2018-07-13T00:31:36.676Z,12.90
2018-07-13T00:32:36.660Z,13.50
2018-07-13T00:33:36.620Z,12.40
2018-07-13T00:34:36.580Z,12.80
2018-07-13T00:35:36.539Z,13.40
2018-07-13T00:36:36.503Z,13.80
2018-07-13T00:37:36.475Z,13.90
2018-07-13T00:38:36.423Z,13.20
2018-07-13T00:39:36.414Z,13.00
2018-07-13T00:40:36.372Z,13.20
2018-07-13T00:41:36.328Z,12.00
2018-07-13T00:42:36.279Z,12.50
2018-07-13T00:43:36.242Z,13.00
2018-07-13T00:44:36.208Z,13.80
2018-07-13T00:45:36.172Z,13.60
2018-07-13T00:46:36.153Z,13.30
2018-07-13T00:47:36.095Z,13.00
2018-07-13T00:48:36.063Z,12.50
2018-07-13T00:49:36.045Z,13.80
2018-07-13T00:50:35.996Z,13.80
2018-07-13T00:51:35.951Z,14.20
2018-07-13T00:52:35.918Z,14.00
2018-07-13T00:53:35.899Z,14.60
2018-07-13T00:54:35.845Z,14.40
2018-07-13T00:55:35.833Z,14.80
2018-07-13T00:56:35.773Z,13.70
2018-07-13T00:57:35.742Z,13.20
2018-07-13T00:58:35.705Z,13.10
2018-07-13T00:59:35.680Z,12.60
2018-07-13T01:00:35.644Z,13.00
2018-07-13T01:01:35.608Z,12.00
2018-07-13T01:02:35.576Z,11.70
2018-07-13T01:03:35.528Z,12.70
2018-07-13T01:04:35.482Z,12.10
2018-07-13T01:05:35.475Z,13.60
2018-07-13T01:06:35.432Z,13.80
2018-07-13T01:07:35.394Z,13.00
2018-07-13T01:08:35.353Z,13.70
2018-07-13T01:09:35.312Z,12.30
2018-07-13T01:10:35.317Z,11.80
2018-07-13T01:11:35.240Z,12.70
2018-07-13T01:12:35.214Z,13.00
2018-07-13T01:13:35.165Z,13.10
2018-07-13T01:14:35.124Z,13.20
2018-07-13T01:15:35.099Z,12.30
2018-07-13T01:16:35.058Z,11.40
2018-07-13T01:17:35.012Z,12.20
2018-07-13T01:18:34.990Z,11.90
2018-07-13T01:19:34.952Z,12.00
2018-07-13T01:20:34.921Z,12.00
2018-07-13T01:21:34.882Z,12.30
2018-07-13T01:22:34.839Z,12.80
2018-07-13T01:23:34.798Z,12.60
2018-07-13T01:24:34.763Z,12.90
2018-07-13T01:25:34.737Z,12.70
2018-07-13T01:26:34.687Z,13.20
2018-07-13T01:27:34.669Z,14.40
2018-07-13T01:28:34.615Z,13.70
2018-07-13T01:29:34.581Z,13.70
2018-07-13T01:30:34.546Z,13.60
2018-07-13T01:31:34.521Z,14.60
2018-07-13T01:32:34.477Z,14.70
2018-07-13T01:33:34.449Z,14.90
2018-07-13T01:34:34.406Z,15.10
2018-07-13T01:35:34.382Z,15.20
2018-07-13T01:36:34.390Z,16.80
2018-07-13T01:37:34.791Z,15.90
2018-07-13T01:38:34.285Z,17.50
2018-07-13T01:39:34.238Z,17.00
2018-07-13T01:40:34.181Z,17.10
2018-07-13T01:41:34.150Z,16.30
2018-07-13T01:42:34.113Z,16.00
2018-07-13T01:43:34.077Z,16.10
2018-07-13T01:44:34.040Z,16.10
2018-07-13T01:45:33.992Z,16.40
2018-07-13T01:46:33.986Z,16.40
2018-07-13T01:47:33.921Z,16.60
2018-07-13T01:48:33.908Z,16.70
2018-07-13T01:49:33.868Z,17.00
2018-07-13T01:50:33.848Z,15.50
2018-07-13T01:51:33.790Z,15.30
2018-07-13T01:52:33.758Z,15.60
2018-07-13T01:53:33.716Z,15.50
2018-07-13T01:54:33.678Z,15.80
2018-07-13T01:55:33.705Z,14.00
2018-07-13T01:56:33.607Z,13.50
2018-07-13T01:57:33.578Z,13.90
2018-07-13T01:58:33.545Z,17.00
2018-07-13T01:59:33.483Z,20.10
2018-07-13T02:00:33.452Z,18.10
2018-07-13T02:01:33.403Z,18.10
2018-07-13T02:02:33.391Z,14.90
2018-07-13T02:03:33.366Z,26.10
2018-07-13T02:04:33.306Z,34.60
2018-07-13T02:05:33.281Z,18.00
2018-07-13T02:06:33.239Z,32.80
2018-07-13T02:07:33.199Z,32.10
2018-07-13T02:08:33.173Z,22.00
2018-07-13T02:09:33.132Z,21.10
2018-07-13T02:10:33.099Z,17.70
2018-07-13T02:11:33.036Z,16.90
2018-07-13T02:12:33.013Z,16.70
2018-07-13T02:13:32.977Z,16.70
2018-07-13T02:14:32.940Z,16.60
2018-07-13T02:15:32.903Z,16.20
2018-07-13T02:16:32.891Z,15.80
2018-07-13T02:17:32.830Z,17.40
2018-07-13T02:18:32.782Z,19.40
2018-07-13T02:19:32.786Z,18.80
2018-07-13T02:20:32.723Z,13.90
2018-07-13T02:21:32.691Z,19.90
2018-07-13T02:22:32.642Z,18.50
2018-07-13T02:23:32.609Z,17.80
2018-07-13T02:24:32.593Z,18.20
2018-07-13T02:25:32.536Z,17.60
2018-07-13T02:26:33.589Z,19.30
2018-07-13T02:27:32.481Z,17.70
2018-07-13T02:28:32.427Z,16.20
2018-07-13T02:29:32.383Z,23.90
2018-07-13T02:30:32.373Z,18.90
2018-07-13T02:31:32.311Z,15.40
2018-07-13T02:32:32.269Z,21.40
2018-07-13T02:33:32.234Z,17.60
2018-07-13T02:34:32.247Z,18.50
2018-07-13T02:35:32.154Z,17.10
2018-07-13T02:36:32.129Z,16.70
2018-07-13T02:37:32.087Z,16.30
2018-07-13T02:38:32.067Z,18.20
2018-07-13T02:39:32.018Z,17.50
2018-07-13T02:40:31.978Z,16.00
2018-07-13T02:41:31.938Z,14.40
2018-07-13T02:42:31.913Z,17.70
2018-07-13T02:43:31.884Z,19.00
2018-07-13T02:44:31.836Z,19.30
2018-07-13T02:45:31.808Z,21.60
2018-07-13T02:46:31.781Z,18.80
2018-07-13T02:47:31.728Z,16.30
2018-07-13T02:48:31.674Z,19.10
2018-07-13T02:49:31.658Z,19.90
2018-07-13T02:50:31.612Z,17.80
2018-07-13T02:51:31.568Z,22.20
2018-07-13T02:52:31.563Z,28.60
2018-07-13T02:53:31.495Z,34.50
2018-07-13T02:54:31.452Z,25.80
2018-07-13T02:55:31.430Z,21.60
2018-07-13T02:56:31.405Z,19.90
2018-07-13T02:57:31.356Z,24.50
2018-07-13T02:58:31.302Z,29.10
2018-07-13T02:59:31.278Z,23.20
2018-07-13T03:00:31.236Z,26.20
2018-07-13T03:01:31.225Z,19.70
2018-07-13T03:02:31.173Z,21.30
2018-07-13T03:03:31.131Z,18.20
2018-07-13T03:04:31.098Z,16.30
2018-07-13T03:05:31.046Z,17.00
2018-07-13T03:06:31.034Z,14.60
2018-07-13T03:07:30.967Z,14.80
2018-07-13T03:08:30.932Z,16.20
2018-07-13T03:09:30.918Z,24.00
2018-07-13T03:10:30.859Z,28.10
2018-07-13T03:11:30.829Z,23.70
2018-07-13T03:12:30.791Z,18.90
2018-07-13T03:13:30.777Z,17.10
2018-07-13T03:14:30.717Z,17.40
2018-07-13T03:15:30.671Z,16.10
2018-07-13T03:16:30.637Z,16.10
2018-07-13T03:17:30.596Z,16.10
2018-07-13T03:18:30.570Z,14.20
2018-07-13T03:19:30.551Z,15.20
2018-07-13T03:20:30.495Z,14.30
2018-07-13T03:21:30.474Z,15.40
2018-07-13T03:22:30.408Z,14.70
2018-07-13T03:23:30.383Z,19.90
2018-07-13T03:24:30.337Z,16.50
2018-07-13T03:25:30.315Z,14.80
2018-07-13T03:26:30.292Z,16.30
2018-07-13T03:27:30.248Z,18.80
2018-07-13T03:28:30.185Z,20.00
2018-07-13T03:29:30.152Z,17.70
2018-07-13T03:30:30.203Z,16.60
2018-07-13T03:31:30.070Z,16.10
2018-07-13T03:32:30.043Z,18.10
2018-07-13T03:33:30.823Z,17.90
2018-07-13T03:34:29.961Z,16.20
2018-07-13T03:35:29.931Z,16.70
2018-07-13T03:36:29.905Z,18.00
2018-07-13T03:37:29.855Z,17.60
2018-07-13T03:38:29.833Z,19.50
2018-07-13T03:39:29.768Z,15.20
2018-07-13T03:40:29.739Z,14.90
2018-07-13T03:41:29.707Z,16.80
2018-07-13T03:42:29.658Z,16.30
2018-07-13T03:43:29.630Z,16.40
2018-07-13T03:44:29.591Z,18.00
2018-07-13T03:45:29.551Z,17.70
2018-07-13T03:46:29.623Z,15.80
2018-07-13T03:47:29.504Z,17.70
2018-07-13T03:48:29.504Z,17.70
2018-07-13T03:49:29.400Z,17.90
2018-07-13T03:50:29.359Z,18.60
2018-07-13T03:51:29.331Z,18.80
2018-07-13T03:52:29.290Z,16.80
2018-07-13T03:53:29.261Z,16.40
2018-07-13T03:54:29.252Z,16.50
2018-07-13T03:55:29.190Z,17.20
2018-07-13T03:56:29.156Z,17.00
2018-07-13T03:57:29.152Z,16.60
2018-07-13T03:58:29.077Z,17.30
2018-07-13T03:59:29.023Z,17.60
2018-07-13T04:00:28.983Z,19.20
2018-07-13T04:01:28.948Z,19.00
2018-07-13T04:02:28.911Z,18.80
2018-07-13T04:03:28.878Z,18.70
2018-07-13T04:04:28.886Z,18.00
2018-07-13T04:05:28.799Z,18.80
2018-07-13T04:06:28.894Z,19.40
2018-07-13T04:07:28.728Z,18.70
2018-07-13T04:08:28.763Z,18.70
2018-07-13T04:09:28.657Z,18.30
2018-07-13T04:10:28.629Z,18.20
2018-07-13T04:11:28.587Z,17.20
2018-07-13T04:12:28.580Z,18.00
2018-07-13T04:13:28.523Z,18.10
2018-07-13T04:14:28.482Z,17.70
2018-07-13T04:15:28.463Z,16.50
2018-07-13T04:16:28.406Z,15.00
2018-07-13T04:17:28.355Z,15.70
2018-07-13T04:18:28.328Z,13.10
2018-07-13T04:19:28.319Z,10.00
2018-07-13T04:20:28.316Z,9.20
2018-07-13T04:21:28.227Z,7.90
2018-07-13T04:22:28.247Z,7.50
2018-07-13T04:23:28.159Z,7.60
2018-07-13T04:24:28.123Z,7.60
2018-07-13T04:25:28.084Z,7.50
2018-07-13T04:26:28.058Z,7.00
2018-07-13T04:27:28.042Z,5.80
2018-07-13T04:28:27.988Z,6.50
2018-07-13T04:29:27.926Z,6.40
2018-07-13T04:30:27.892Z,6.70
2018-07-13T04:31:27.864Z,6.50
2018-07-13T04:32:27.819Z,6.20
2018-07-13T04:33:27.797Z,6.30
2018-07-13T04:34:27.751Z,6.60
2018-07-13T04:35:27.712Z,6.20
2018-07-13T04:36:27.722Z,6.20
2018-07-13T04:37:27.673Z,6.20
2018-07-13T04:38:27.613Z,6.10
2018-07-13T04:39:27.572Z,6.10
2018-07-13T04:40:27.551Z,6.10
2018-07-13T04:41:27.519Z,6.10
2018-07-13T04:42:27.495Z,5.90
2018-07-13T04:43:27.445Z,5.90
2018-07-13T04:44:27.418Z,5.90
2018-07-13T04:45:27.404Z,5.40
2018-07-13T04:46:27.333Z,5.60
2018-07-13T04:47:27.321Z,5.80
2018-07-13T04:48:27.328Z,5.40
2018-07-13T04:49:27.243Z,5.30
2018-07-13T04:50:27.248Z,5.80
2018-07-13T04:51:27.174Z,5.80
2018-07-13T04:52:27.229Z,5.40
2018-07-13T04:53:27.110Z,5.50
2018-07-13T04:54:27.085Z,5.20
2018-07-13T04:55:27.074Z,5.20
2018-07-13T04:56:27.054Z,5.40
2018-07-13T04:57:26.985Z,5.80
2018-07-13T04:58:26.955Z,5.20
2018-07-13T04:59:26.954Z,5.10
2018-07-13T05:00:26.935Z,5.50
2018-07-13T05:01:26.861Z,5.50
2018-07-13T05:02:26.825Z,5.30
2018-07-13T05:03:26.810Z,5.30
2018-07-13T05:04:26.780Z,5.00
2018-07-13T05:05:26.728Z,5.10
2018-07-13T05:06:26.705Z,5.20
2018-07-13T05:07:26.655Z,5.40
2018-07-13T05:08:27.357Z,5.00
2018-07-13T05:09:26.612Z,4.70
2018-07-13T05:10:26.582Z,4.90
2018-07-13T05:11:26.560Z,4.90
2018-07-13T05:12:26.517Z,5.30
2018-07-13T05:13:26.490Z,5.10
2018-07-13T05:14:26.467Z,4.80
2018-07-13T05:15:26.487Z,5.00
2018-07-13T05:16:26.393Z,4.80
2018-07-13T05:17:26.471Z,4.70
2018-07-13T05:18:26.342Z,4.80
2018-07-13T05:19:26.317Z,4.60
2018-07-13T05:20:26.288Z,4.30
2018-07-13T05:21:26.261Z,4.80
2018-07-13T05:22:26.230Z,4.90
2018-07-13T05:23:26.189Z,4.90
2018-07-13T05:24:26.161Z,4.70
2018-07-13T05:25:26.137Z,4.70
2018-07-13T05:26:26.147Z,5.20
2018-07-13T05:27:26.076Z,5.00
2018-07-13T05:28:26.057Z,4.80
2018-07-13T05:29:26.047Z,4.70
2018-07-13T05:30:25.999Z,4.70
2018-07-13T05:31:25.977Z,4.20
2018-07-13T05:32:25.950Z,4.40
2018-07-13T05:33:25.920Z,3.80
2018-07-13T05:34:25.934Z,4.40
2018-07-13T05:35:25.855Z,4.10
2018-07-13T05:36:25.855Z,4.10
2018-07-13T05:37:25.829Z,4.90
2018-07-13T05:38:25.861Z,5.10
2018-07-13T05:39:25.755Z,4.20
2018-07-13T05:40:25.751Z,4.50
2018-07-13T05:41:25.695Z,4.20
2018-07-13T05:42:25.694Z,4.90
2018-07-13T05:43:25.643Z,3.90
2018-07-13T05:44:25.688Z,4.70
2018-07-13T05:45:25.624Z,4.90
2018-07-13T05:46:25.565Z,5.10
2018-07-13T05:47:25.531Z,5.30
2018-07-13T05:48:25.508Z,5.30
2018-07-13T05:49:25.474Z,5.40
2018-07-13T05:50:25.450Z,5.20
2018-07-13T05:51:25.420Z,5.20
2018-07-13T05:52:25.389Z,5.60
2018-07-13T05:53:25.353Z,5.60
2018-07-13T05:54:25.311Z,6.10
2018-07-13T05:55:25.296Z,5.80
2018-07-13T05:56:25.275Z,5.90
2018-07-13T05:57:25.236Z,5.80
2018-07-13T05:58:25.197Z,6.30
2018-07-13T05:59:25.171Z,5.10
2018-07-13T06:00:25.183Z,5.70
2018-07-13T06:01:25.120Z,5.90
2018-07-13T06:02:25.130Z,5.80
2018-07-13T06:03:25.088Z,5.50
2018-07-13T06:04:25.048Z,5.10
2018-07-13T06:05:25.000Z,5.30
2018-07-13T06:06:25.043Z,5.30
2018-07-13T06:07:24.932Z,5.40
2018-07-13T06:08:24.908Z,5.50
2018-07-13T06:09:24.902Z,5.20
2018-07-13T06:10:24.847Z,5.50
2018-07-13T06:11:24.811Z,5.60
2018-07-13T06:12:24.803Z,4.90
2018-07-13T06:13:24.756Z,5.60
2018-07-13T06:14:24.736Z,5.40
2018-07-13T06:15:24.713Z,6.00
2018-07-13T06:16:24.668Z,4.80
2018-07-13T06:17:24.646Z,5.60
2018-07-13T06:18:24.609Z,6.10
2018-07-13T06:19:24.582Z,6.20
2018-07-13T06:20:24.554Z,5.90
2018-07-13T06:21:24.523Z,6.40
2018-07-13T06:22:24.495Z,5.90
2018-07-13T06:23:24.463Z,5.70
2018-07-13T06:24:24.452Z,5.90
2018-07-13T06:25:24.428Z,5.50
2018-07-13T06:26:24.360Z,5.80
2018-07-13T06:27:24.346Z,5.80
2018-07-13T06:28:24.325Z,5.60
2018-07-13T06:29:24.272Z,5.70
2018-07-13T06:30:24.258Z,5.50
2018-07-13T06:31:24.297Z,5.70
2018-07-13T06:32:24.187Z,5.70
2018-07-13T06:33:24.174Z,5.60
2018-07-13T06:34:24.127Z,5.60
2018-07-13T06:35:24.114Z,5.50
2018-07-13T06:36:24.065Z,5.60
2018-07-13T06:37:24.048Z,5.50
2018-07-13T06:38:24.018Z,5.40
2018-07-13T06:39:23.981Z,5.50
2018-07-13T06:40:23.978Z,5.20
2018-07-13T06:41:23.947Z,4.80
2018-07-13T06:42:23.934Z,5.40
2018-07-13T06:43:23.858Z,5.20
2018-07-13T06:44:23.826Z,5.60
2018-07-13T06:45:23.820Z,5.80
2018-07-13T06:46:23.788Z,5.50
2018-07-13T06:47:23.751Z,5.30
2018-07-13T06:48:23.721Z,5.50
2018-07-13T06:49:23.695Z,5.10
2018-07-13T06:50:23.742Z,5.20
2018-07-13T06:51:23.650Z,5.20
2018-07-13T06:52:23.603Z,5.20
2018-07-13T06:53:23.579Z,5.20
2018-07-13T06:54:23.559Z,5.20
2018-07-13T06:55:23.505Z,5.30
2018-07-13T06:56:23.481Z,5.30
2018-07-13T06:57:23.471Z,5.00
2018-07-13T06:58:23.421Z,5.10
2018-07-13T06:59:23.389Z,5.40
2018-07-13T07:00:23.367Z,5.70
2018-07-13T07:01:23.365Z,4.60
2018-07-13T07:02:23.322Z,5.00
2018-07-13T07:03:23.289Z,5.00
2018-07-13T07:04:23.283Z,4.60
2018-07-13T07:05:23.233Z,4.80
2018-07-13T07:06:23.198Z,4.60
2018-07-13T07:07:23.173Z,4.30
2018-07-13T07:08:23.154Z,5.10
2018-07-13T07:09:23.125Z,4.50
2018-07-13T07:10:23.108Z,4.60
2018-07-13T07:11:23.078Z,4.40
2018-07-13T07:12:23.041Z,4.20
2018-07-13T07:13:23.014Z,4.30
2018-07-13T07:14:22.995Z,4.10
2018-07-13T07:15:22.971Z,3.90
2018-07-13T07:16:22.946Z,4.10
2018-07-13T07:17:22.921Z,4.20
2018-07-13T07:18:22.893Z,4.00
2018-07-13T07:19:22.865Z,4.20
2018-07-13T07:20:22.836Z,3.60
2018-07-13T07:21:22.821Z,3.90
2018-07-13T07:22:22.808Z,4.00
2018-07-13T07:23:22.831Z,4.10
2018-07-13T07:24:22.750Z,3.60
2018-07-13T07:25:22.712Z,3.70
2018-07-13T07:26:22.695Z,3.70
2018-07-13T07:27:22.676Z,3.80
2018-07-13T07:28:22.652Z,3.70
2018-07-13T07:29:22.633Z,3.70
2018-07-13T07:30:22.604Z,3.90
2018-07-13T07:31:22.584Z,3.40
2018-07-13T07:32:22.615Z,3.40
2018-07-13T07:33:22.549Z,3.90
2018-07-13T07:34:22.525Z,3.80
2018-07-13T07:35:22.504Z,3.50
2018-07-13T07:36:22.463Z,3.50
2018-07-13T07:37:22.438Z,3.10
2018-07-13T07:38:22.442Z,3.80
2018-07-13T07:39:22.408Z,3.60
2018-07-13T07:40:22.391Z,3.60
2018-07-13T07:41:22.356Z,3.40
2018-07-13T07:42:22.334Z,3.00
2018-07-13T07:43:22.321Z,3.50
2018-07-13T07:44:22.301Z,3.80
2018-07-13T07:45:22.277Z,3.50
2018-07-13T07:46:22.263Z,3.40
2018-07-13T07:47:22.235Z,3.60
2018-07-13T07:48:22.215Z,3.60
2018-07-13T07:49:22.195Z,3.30
2018-07-13T07:50:22.190Z,3.60
2018-07-13T07:51:22.141Z,3.30
2018-07-13T07:52:22.136Z,3.30
2018-07-13T07:53:22.131Z,3.30
2018-07-13T07:54:22.080Z,3.50
2018-07-13T07:55:22.138Z,3.40
2018-07-13T07:56:22.204Z,3.30
2018-07-13T07:57:22.012Z,3.70
2018-07-13T07:58:21.981Z,3.40
2018-07-13T07:59:22.003Z,3.50
2018-07-13T08:00:22.018Z,3.70
2018-07-13T08:01:21.970Z,3.70
2018-07-13T08:02:22.010Z,3.90
2018-07-13T08:03:21.873Z,3.60
2018-07-13T08:04:21.855Z,3.40
2018-07-13T08:05:21.829Z,3.60
2018-07-13T08:06:21.917Z,3.80
2018-07-13T08:07:21.865Z,3.70
2018-07-13T08:08:21.777Z,3.90
2018-07-13T08:09:21.748Z,4.10
2018-07-13T08:10:21.753Z,3.60
2018-07-13T08:11:21.736Z,3.70
2018-07-13T08:12:21.678Z,3.60
2018-07-13T08:13:21.679Z,3.80
2018-07-13T08:14:21.651Z,3.80
2018-07-13T08:15:21.628Z,3.90
2018-07-13T08:16:21.618Z,4.10
2018-07-13T08:17:21.591Z,3.90
2018-07-13T08:18:21.564Z,4.00
2018-07-13T08:19:21.545Z,4.00
2018-07-13T08:20:21.520Z,3.80
2018-07-13T08:21:21.503Z,3.70
2018-07-13T08:22:21.492Z,4.20
2018-07-13T08:23:21.463Z,3.80
2018-07-13T08:24:21.452Z,3.40
2018-07-13T08:25:21.422Z,3.70
2018-07-13T08:26:21.403Z,3.60
2018-07-13T08:27:21.383Z,3.80
2018-07-13T08:28:21.349Z,3.60
2018-07-13T08:29:21.337Z,3.70
2018-07-13T08:30:21.330Z,3.60
2018-07-13T08:31:21.290Z,3.60
2018-07-13T08:32:21.285Z,3.70
2018-07-13T08:33:21.253Z,3.70
2018-07-13T08:34:21.240Z,3.90
2018-07-13T08:35:21.206Z,3.40
2018-07-13T08:36:21.206Z,3.60
2018-07-13T08:37:21.183Z,3.40
2018-07-13T08:38:21.171Z,3.10
2018-07-13T08:39:21.130Z,3.30
2018-07-13T08:40:21.125Z,2.80
2018-07-13T08:41:21.095Z,3.00
2018-07-13T08:42:21.096Z,3.20
2018-07-13T08:43:21.082Z,3.30
2018-07-13T08:44:21.053Z,3.20
2018-07-13T08:45:21.041Z,3.40
2018-07-13T08:46:20.999Z,3.00
2018-07-13T08:47:20.991Z,3.10
2018-07-13T08:48:20.953Z,2.90
2018-07-13T08:49:20.966Z,2.70
2018-07-13T08:50:20.952Z,3.00
2018-07-13T08:51:20.901Z,3.30
2018-07-13T08:52:20.882Z,3.10
2018-07-13T08:53:20.855Z,3.40
2018-07-13T08:54:20.842Z,3.20
2018-07-13T08:55:20.814Z,3.30
2018-07-13T08:56:20.829Z,3.10
2018-07-13T08:57:20.792Z,3.30
2018-07-13T08:58:20.765Z,3.40
2018-07-13T08:59:20.742Z,3.40
2018-07-13T09:00:20.722Z,3.60
2018-07-13T09:01:20.693Z,3.20
2018-07-13T09:02:20.694Z,3.40
2018-07-13T09:03:20.670Z,3.20
2018-07-13T09:04:21.638Z,3.20
2018-07-13T09:05:20.634Z,3.10
2018-07-13T09:06:20.636Z,3.20
2018-07-13T09:07:20.579Z,3.00
2018-07-13T09:08:20.626Z,3.10
2018-07-13T09:09:20.557Z,3.60
2018-07-13T09:10:20.519Z,3.00
2018-07-13T09:11:20.512Z,3.00
2018-07-13T09:12:20.499Z,2.80
2018-07-13T09:13:20.462Z,2.90
2018-07-13T09:14:20.445Z,3.00
2018-07-13T09:15:20.419Z,3.40
2018-07-13T09:16:20.449Z,3.20
2018-07-13T09:17:20.387Z,3.20
2018-07-13T09:18:20.468Z,3.10
2018-07-13T09:19:20.345Z,3.40
2018-07-13T09:20:20.346Z,3.10
2018-07-13T09:21:20.308Z,2.90
2018-07-13T09:22:20.295Z,2.90
2018-07-13T09:23:20.269Z,3.00
2018-07-13T09:24:20.254Z,3.00
2018-07-13T09:25:20.236Z,2.80
2018-07-13T09:26:20.229Z,2.90
2018-07-13T09:27:20.181Z,3.10
2018-07-13T09:28:20.175Z,3.00
2018-07-13T09:29:20.150Z,2.80
2018-07-13T09:30:20.167Z,3.00
2018-07-13T09:31:20.210Z,2.80
2018-07-13T09:32:20.096Z,3.10
2018-07-13T09:33:20.084Z,2.60
2018-07-13T09:34:20.096Z,2.90
2018-07-13T09:35:20.035Z,2.90
2018-07-13T09:36:20.055Z,3.00
2018-07-13T09:37:20.002Z,3.00
2018-07-13T09:38:20.037Z,3.10
2018-07-13T09:39:19.971Z,2.90
2018-07-13T09:40:19.984Z,2.70
2018-07-13T09:41:19.958Z,2.80
2018-07-13T09:42:20.001Z,3.00
2018-07-13T09:43:19.913Z,2.70
2018-07-13T09:44:19.857Z,2.60
2018-07-13T09:45:19.854Z,2.70
2018-07-13T09:46:19.844Z,2.70
2018-07-13T09:47:19.803Z,3.00
2018-07-13T09:48:19.810Z,2.60
2018-07-13T09:49:19.769Z,2.40
2018-07-13T09:50:19.744Z,2.40
2018-07-13T09:51:19.733Z,2.50
2018-07-13T09:52:19.726Z,2.50
2018-07-13T09:53:19.681Z,2.70
2018-07-13T09:54:19.667Z,2.40
2018-07-13T09:55:19.655Z,2.30
2018-07-13T09:56:19.632Z,2.40
2018-07-13T09:57:19.617Z,2.40
2018-07-13T09:58:19.601Z,2.30
2018-07-13T09:59:19.576Z,2.40
2018-07-13T10:00:19.556Z,2.40
2018-07-13T10:01:19.529Z,2.70
2018-07-13T10:02:19.527Z,2.40
2018-07-13T10:03:19.495Z,2.30
2018-07-13T10:04:19.480Z,2.60
2018-07-13T10:05:19.461Z,2.30
2018-07-13T10:06:19.463Z,2.30
2018-07-13T10:07:19.417Z,2.40
2018-07-13T10:08:19.411Z,2.30
2018-07-13T10:09:19.378Z,2.50
2018-07-13T10:10:19.351Z,2.50
2018-07-13T10:11:19.342Z,2.40
2018-07-13T10:12:19.318Z,2.50
2018-07-13T10:13:19.359Z,2.40
2018-07-13T10:14:19.283Z,2.40
2018-07-13T10:15:19.251Z,2.30
2018-07-13T10:16:19.231Z,2.30
2018-07-13T10:17:19.229Z,2.00
2018-07-13T10:18:19.190Z,2.20
2018-07-13T10:19:19.182Z,2.20
2018-07-13T10:20:19.157Z,2.30
2018-07-13T10:21:19.143Z,2.70
2018-07-13T10:22:19.115Z,2.30
2018-07-13T10:23:19.098Z,2.30
2018-07-13T10:24:19.121Z,2.00
2018-07-13T10:25:19.052Z,2.20
2018-07-13T10:26:19.037Z,2.30
2018-07-13T10:27:19.020Z,2.30
2018-07-13T10:28:19.000Z,2.20
2018-07-13T10:29:19.055Z,2.10
2018-07-13T10:30:18.962Z,2.20
2018-07-13T10:31:18.945Z,2.20
2018-07-13T10:32:18.925Z,2.40
2018-07-13T10:33:18.888Z,2.20
2018-07-13T10:34:18.882Z,2.10
2018-07-13T10:35:18.891Z,2.10
2018-07-13T10:36:18.836Z,1.90
2018-07-13T10:37:18.818Z,2.00
2018-07-13T10:38:18.793Z,2.30
2018-07-13T10:39:18.785Z,2.00
2018-07-13T10:40:18.756Z,2.20
2018-07-13T10:41:18.738Z,1.90
2018-07-13T10:42:18.735Z,2.00
2018-07-13T10:43:18.696Z,2.00
2018-07-13T10:44:18.685Z,2.00
2018-07-13T10:45:18.673Z,2.00
2018-07-13T10:46:18.625Z,2.00
2018-07-13T10:47:18.606Z,2.00
2018-07-13T10:48:18.593Z,2.10
2018-07-13T10:49:18.574Z,1.90
2018-07-13T10:50:18.563Z,1.90
2018-07-13T10:51:18.534Z,2.20
2018-07-13T10:52:18.511Z,2.20
2018-07-13T10:53:18.493Z,2.30
2018-07-13T10:54:18.492Z,2.00
2018-07-13T10:55:18.473Z,2.00
2018-07-13T10:56:18.432Z,2.10
2018-07-13T10:57:18.408Z,2.20
2018-07-13T10:58:18.387Z,2.00
2018-07-13T10:59:18.376Z,2.40
2018-07-13T11:00:18.344Z,2.30
2018-07-13T11:01:18.346Z,2.00
2018-07-13T11:02:18.319Z,2.30
2018-07-13T11:03:18.286Z,2.00
2018-07-13T11:04:18.268Z,2.00
2018-07-13T11:05:18.303Z,2.20
2018-07-13T11:06:18.227Z,2.10
2018-07-13T11:07:18.209Z,2.30
2018-07-13T11:08:18.188Z,2.20
2018-07-13T11:09:18.156Z,2.10
2018-07-13T11:10:18.151Z,2.30
2018-07-13T11:11:18.119Z,2.30
2018-07-13T11:12:18.142Z,2.60
2018-07-13T11:13:18.089Z,2.10
2018-07-13T11:14:18.080Z,2.10
2018-07-13T11:15:18.048Z,2.20
2018-07-13T11:16:18.040Z,2.20
2018-07-13T11:17:18.004Z,2.20
2018-07-13T11:18:17.974Z,2.10
2018-07-13T11:19:17.958Z,2.00
2018-07-13T11:20:17.953Z,2.30
2018-07-13T11:21:17.922Z,1.80
2018-07-13T11:22:17.905Z,2.30
2018-07-13T11:23:17.871Z,2.10
2018-07-13T11:24:17.926Z,2.00
2018-07-13T11:25:17.840Z,2.20
2018-07-13T11:26:17.815Z,2.20
2018-07-13T11:27:17.808Z,2.10
2018-07-13T11:28:17.776Z,2.40
2018-07-13T11:29:17.755Z,2.40
2018-07-13T11:30:17.728Z,2.10
2018-07-13T11:31:17.710Z,2.10
2018-07-13T11:32:17.687Z,2.20
2018-07-13T11:33:17.677Z,2.30
2018-07-13T11:34:17.645Z,2.10
2018-07-13T11:35:17.624Z,1.90
2018-07-13T11:36:17.609Z,2.30
2018-07-13T11:37:17.644Z,2.10
2018-07-13T11:38:17.568Z,2.20
2018-07-13T11:39:17.548Z,2.10
2018-07-13T11:40:17.533Z,2.10
2018-07-13T11:41:17.503Z,2.60
2018-07-13T11:42:17.489Z,2.40
2018-07-13T11:43:17.474Z,2.40
2018-07-13T11:44:17.519Z,2.20
2018-07-13T11:45:17.438Z,2.20
2018-07-13T11:46:17.422Z,2.10
2018-07-13T11:47:17.397Z,2.20
2018-07-13T11:48:17.361Z,2.20
2018-07-13T11:49:17.339Z,2.10
2018-07-13T11:50:17.312Z,2.00
2018-07-13T11:51:17.319Z,1.70
2018-07-13T11:52:17.278Z,1.90
2018-07-13T11:53:17.253Z,2.10
2018-07-13T11:54:17.236Z,2.20
2018-07-13T11:55:17.224Z,2.00
2018-07-13T11:56:17.196Z,2.00
2018-07-13T11:57:17.185Z,2.20
2018-07-13T11:58:17.151Z,2.10
2018-07-13T11:59:17.128Z,1.80
2018-07-13T12:00:17.121Z,2.00
2018-07-13T12:01:17.109Z,2.00
2018-07-13T12:02:17.077Z,2.00
2018-07-13T12:03:17.072Z,1.90
2018-07-13T12:04:17.038Z,1.90
2018-07-13T12:05:17.012Z,1.80
2018-07-13T12:06:17.008Z,2.10
2018-07-13T12:07:16.989Z,2.00
2018-07-13T12:08:16.987Z,1.70
2018-07-13T12:09:16.939Z,1.80
2018-07-13T12:10:16.923Z,1.90
2018-07-13T12:11:16.895Z,2.00
2018-07-13T12:12:16.918Z,2.10
2018-07-13T12:13:16.868Z,1.90
2018-07-13T12:14:16.839Z,1.90
2018-07-13T12:15:16.887Z,2.00
2018-07-13T12:16:16.821Z,2.10
2018-07-13T12:17:16.792Z,2.00
2018-07-13T12:18:16.753Z,2.10
2018-07-13T12:19:16.736Z,2.10
2018-07-13T12:20:16.763Z,2.20
2018-07-13T12:21:16.694Z,2.20
2018-07-13T12:22:16.673Z,2.30
2018-07-13T12:23:16.728Z,2.10
2018-07-13T12:24:16.624Z,2.70
2018-07-13T12:25:16.630Z,2.00
2018-07-13T12:26:16.589Z,2.20
2018-07-13T12:27:16.568Z,2.20
2018-07-13T12:28:16.528Z,2.20
2018-07-13T12:29:16.526Z,2.20
2018-07-13T12:30:16.491Z,1.90
2018-07-13T12:31:16.480Z,2.10
2018-07-13T12:32:16.513Z,2.20
2018-07-13T12:33:16.453Z,2.00
2018-07-13T12:34:16.416Z,2.10
2018-07-13T12:35:16.397Z,1.90
2018-07-13T12:36:16.384Z,1.90
2018-07-13T12:37:16.373Z,1.90
2018-07-13T12:38:16.347Z,2.20
2018-07-13T12:39:16.304Z,2.00
2018-07-13T12:40:16.285Z,2.00
2018-07-13T12:41:16.251Z,2.10
2018-07-13T12:42:16.269Z,2.00
2018-07-13T12:43:16.248Z,2.10
2018-07-13T12:44:16.185Z,1.90
2018-07-13T12:45:16.216Z,2.20
2018-07-13T12:46:16.175Z,2.10
2018-07-13T12:47:16.140Z,2.00
2018-07-13T12:48:16.134Z,2.10
2018-07-13T12:49:16.108Z,2.20
2018-07-13T12:50:16.084Z,2.30
2018-07-13T12:51:16.064Z,1.90
2018-07-13T12:52:16.034Z,2.30
2018-07-13T12:53:16.028Z,2.10
2018-07-13T12:54:16.059Z,1.90
2018-07-13T12:55:16.002Z,2.10
2018-07-13T12:56:15.948Z,2.10
2018-07-13T12:57:15.945Z,1.80
2018-07-13T12:58:15.931Z,2.10
2018-07-13T12:59:15.882Z,2.00
2018-07-13T13:00:15.859Z,2.00
2018-07-13T13:01:15.859Z,1.80
2018-07-13T13:02:15.857Z,1.90
2018-07-13T13:03:15.822Z,1.90
2018-07-13T13:04:15.794Z,1.90
2018-07-13T13:05:15.757Z,1.80
2018-07-13T13:06:15.755Z,1.90
2018-07-13T13:07:15.722Z,1.80
2018-07-13T13:08:15.703Z,2.10
2018-07-13T13:09:15.701Z,1.90